Time;durP1;ratioP1;P1;durP2;ratioP2;P2;SDS_P1;SDS_P2;PMS_P1;PMS_P2;Temp;Humidity;BMP_temperature;BMP_pressure;BME280_temperature;BME280_humidity;BME280_pressure;Samples;Min_cycle;Max_cycle;Signal;HPM_P1;HPM_P2
2022/02/08 00:00:12;;;;;;;;;;;23.90;46.70;;;;;;1507759;77;1640;-73
2022/02/08 00:02:15;;;;;;;;;;;23.90;46.70;;;;;;1506908;79;1953;-72
2022/02/08 00:04:17;;;;;;;;;;;23.90;46.70;;;;;;1506918;79;710;-72
2022/02/08 00:08:34;;;;;;;;;;;23.90;46.60;;;;;;1477012;79;1152;-72
2022/02/08 00:10:37;;;;;;;;;;;23.90;46.70;;;;;;1507078;79;657;-71
2022/02/08 00:12:39;;;;;;;;;;;24.00;46.70;;;;;;1506875;79;725;-72
2022/02/08 00:14:41;;;;;;;;;;;23.80;46.60;;;;;;1507042;79;729;-73
2022/02/08 00:16:43;;;;;;;;;;;23.90;46.70;;;;;;1506938;77;1140;-71
2022/02/08 00:18:45;;;;;;;;;;;24.00;46.70;;;;;;1527077;77;645;-72
2022/02/08 00:20:47;;;;;;;;;;;23.90;46.80;;;;;;1531738;77;663;-72
2022/02/08 00:22:49;;;;;;;;;;;23.90;46.70;;;;;;1532212;77;1956;-75
2022/02/08 00:24:50;;;;;;;;;;;23.80;46.60;;;;;;1532296;77;820;-73
2022/02/08 00:26:53;;;;;;;;;;;23.90;46.80;;;;;;1532286;76;1133;-72
2022/02/08 00:28:55;;;;;;;;;;;24.00;46.80;;;;;;1509070;77;749;-75
2022/02/08 00:30:57;;;;;;;;;;;23.90;46.70;;;;;;1506946;79;808;-71
2022/02/08 00:32:58;;;;;;;;;;;23.90;46.80;;;;;;1507110;79;752;-72
2022/02/08 00:35:00;;;;;;;;;;;23.80;46.70;;;;;;1510258;77;642;-73
2022/02/08 00:37:02;;;;;;;;;;;23.90;46.70;;;;;;1532365;76;1214;-72
2022/02/08 00:39:07;;;;;;;;;;;23.90;46.70;;;;;;1536565;77;768;-73
2022/02/08 00:41:08;;;;;;;;;;;23.90;46.80;;;;;;1543444;77;1694;-75
2022/02/08 00:43:10;;;;;;;;;;;23.90;46.70;;;;;;1539932;77;1927;-73
2022/02/08 00:45:30;;;;;;;;;;;23.90;46.80;;;;;;1532227;77;725;-72
2022/02/08 00:47:27;;;;;;;;;;;23.90;46.80;;;;;;1523340;76;1442;-73
2022/02/08 00:49:29;;;;;;;;;;;23.90;46.80;;;;;;1524232;77;1551;-73
2022/02/08 00:51:27;;;;;;;;;;;23.80;46.70;;;;;;1506464;79;977;-73
2022/02/08 00:53:29;;;;;;;;;;;23.90;46.80;;;;;;1511142;77;778;-74
2022/02/08 00:55:31;;;;;;;;;;;23.80;46.70;;;;;;1529960;77;757;-75
2022/02/08 00:57:32;;;;;;;;;;;23.80;46.60;;;;;;1525509;76;1145;-73
2022/02/08 00:59:34;;;;;;;;;;;23.90;46.80;;;;;;1532366;77;721;-73
2022/02/08 01:01:38;;;;;;;;;;;23.80;46.80;;;;;;1532178;77;784;-73
2022/02/08 01:03:41;;;;;;;;;;;23.90;46.80;;;;;;1532301;77;1902;-73
2022/02/08 01:05:49;;;;;;;;;;;23.90;46.80;;;;;;1531622;77;711;-74
2022/02/08 01:07:47;;;;;;;;;;;23.90;46.80;;;;;;1531294;76;1591;-73
2022/02/08 01:10:00;;;;;;;;;;;23.80;46.80;;;;;;1532392;77;692;-72
2022/02/08 01:12:02;;;;;;;;;;;23.90;46.90;;;;;;1532066;77;1679;-74
2022/02/08 01:14:04;;;;;;;;;;;23.80;46.80;;;;;;1532312;77;788;-71
2022/02/08 01:16:06;;;;;;;;;;;23.90;46.80;;;;;;1531696;77;743;-71
2022/02/08 01:18:07;;;;;;;;;;;23.90;46.80;;;;;;1532290;76;1079;-71
2022/02/08 01:20:17;;;;;;;;;;;23.90;46.90;;;;;;1531716;77;786;-72
2022/02/08 01:22:16;;;;;;;;;;;23.90;46.90;;;;;;1531356;77;1651;-71
2022/02/08 01:24:18;;;;;;;;;;;23.90;46.80;;;;;;1532206;77;1930;-70
2022/02/08 01:26:20;;;;;;;;;;;23.80;46.70;;;;;;1532273;77;778;-71
2022/02/08 01:28:41;;;;;;;;;;;23.90;46.80;;;;;;1532024;76;1150;-72
2022/02/08 01:30:55;;;;;;;;;;;23.90;46.90;;;;;;1523124;77;1702;-72
2022/02/08 01:35:24;;;;;;;;;;;23.90;46.90;;;;;;1532180;77;825;-72
2022/02/08 01:37:39;;;;;;;;;;;23.80;46.80;;;;;;1524901;76;1748;-71
2022/02/08 01:39:43;;;;;;;;;;;23.90;47.00;;;;;;1527126;77;1790;-74
2022/02/08 01:48:09;;;;;;;;;;;23.90;47.00;;;;;;1531558;77;1139;-74
2022/02/08 01:50:12;;;;;;;;;;;23.80;46.90;;;;;;1530721;77;1683;-74
2022/02/08 01:52:14;;;;;;;;;;;23.90;47.00;;;;;;1532378;77;663;-72
2022/02/08 01:54:16;;;;;;;;;;;23.90;47.00;;;;;;1532327;77;780;-71
2022/02/08 01:56:18;;;;;;;;;;;23.90;47.00;;;;;;1521993;76;828;-72
2022/02/08 01:58:20;;;;;;;;;;;23.90;47.00;;;;;;1517970;77;1118;-71
2022/02/08 02:00:22;;;;;;;;;;;23.90;47.00;;;;;;1530483;77;745;-72
2022/02/08 02:02:24;;;;;;;;;;;23.80;47.00;;;;;;1529327;77;752;-72
2022/02/08 02:04:25;;;;;;;;;;;23.90;47.00;;;;;;1532908;77;1933;-73
2022/02/08 02:06:27;;;;;;;;;;;23.90;47.00;;;;;;1524877;77;677;-72
2022/02/08 02:08:29;;;;;;;;;;;23.90;47.10;;;;;;1532244;77;1122;-73
2022/02/08 02:10:32;;;;;;;;;;;23.80;46.90;;;;;;1532272;77;750;-72
2022/02/08 02:12:36;;;;;;;;;;;23.80;46.90;;;;;;1531538;77;736;-73
2022/02/08 02:14:38;;;;;;;;;;;23.90;47.00;;;;;;1532177;77;1611;-72
2022/02/08 02:16:53;;;;;;;;;;;23.80;46.90;;;;;;1532183;77;742;-73
2022/02/08 02:18:46;;;;;;;;;;;23.90;47.00;;;;;;1530057;77;1628;-75
2022/02/08 02:20:48;;;;;;;;;;;23.90;47.00;;;;;;1515803;77;755;-73
2022/02/08 02:22:50;;;;;;;;;;;23.90;46.90;;;;;;1532290;77;732;-72
2022/02/08 02:24:52;;;;;;;;;;;23.90;47.00;;;;;;1532228;77;1940;-72
2022/02/08 02:26:57;;;;;;;;;;;23.80;46.90;;;;;;1532271;77;1129;-72
2022/02/08 02:28:57;;;;;;;;;;;23.80;47.00;;;;;;1531250;77;1672;-73
2022/02/08 02:30:59;;;;;;;;;;;23.80;46.90;;;;;;1532375;77;771;-72
2022/02/08 02:33:01;;;;;;;;;;;23.90;47.00;;;;;;1532352;77;766;-72
2022/02/08 02:35:03;;;;;;;;;;;23.90;47.00;;;;;;1532184;77;572;-72
2022/02/08 02:37:05;;;;;;;;;;;23.80;46.90;;;;;;1532297;76;1144;-73
2022/02/08 02:39:07;;;;;;;;;;;23.80;46.90;;;;;;1531537;77;835;-72
2022/02/08 02:41:09;;;;;;;;;;;23.80;46.90;;;;;;1532228;77;792;-73
2022/02/08 02:43:11;;;;;;;;;;;23.80;46.90;;;;;;1532174;77;1948;-71
2022/02/08 02:45:13;;;;;;;;;;;23.80;46.90;;;;;;1532114;77;711;-72
2022/02/08 02:47:15;;;;;;;;;;;23.90;47.00;;;;;;1531577;76;1158;-71
2022/02/08 02:49:17;;;;;;;;;;;23.80;46.90;;;;;;1528870;77;788;-73
2022/02/08 02:51:23;;;;;;;;;;;23.90;47.00;;;;;;1532377;77;741;-75
2022/02/08 02:53:23;;;;;;;;;;;23.80;46.90;;;;;;1531854;77;1660;-73
2022/02/08 02:55:31;;;;;;;;;;;23.90;47.00;;;;;;1532226;77;736;-73
2022/02/08 02:57:29;;;;;;;;;;;23.80;47.00;;;;;;1530597;77;1199;-73
2022/02/08 02:59:34;;;;;;;;;;;23.80;46.90;;;;;;1532370;77;705;-73
2022/02/08 03:01:50;;;;;;;;;;;23.80;46.90;;;;;;1532195;77;1663;-73
2022/02/08 03:03:56;;;;;;;;;;;23.90;47.00;;;;;;1528127;77;1928;-76
2022/02/08 03:19:34;;;;;;;;;;;23.90;47.00;;;;;;1495556;78;1667;-70
2022/02/08 03:21:35;;;;;;;;;;;23.80;47.10;;;;;;1490410;79;742;-70
2022/02/08 03:23:37;;;;;;;;;;;23.80;47.10;;;;;;1505068;79;1938;-69
2022/02/08 03:25:39;;;;;;;;;;;23.80;47.10;;;;;;1505184;78;746;-69
2022/02/08 03:27:41;;;;;;;;;;;23.90;47.10;;;;;;1518551;77;1175;-70
2022/02/08 03:29:43;;;;;;;;;;;23.80;47.00;;;;;;1491506;80;806;-70
2022/02/08 03:31:45;;;;;;;;;;;23.80;47.00;;;;;;1487315;80;749;-70
2022/02/08 03:33:47;;;;;;;;;;;23.80;47.00;;;;;;1491456;79;744;-70
2022/02/08 03:35:50;;;;;;;;;;;23.90;47.10;;;;;;1485876;79;724;-68
2022/02/08 03:37:57;;;;;;;;;;;23.80;47.00;;;;;;1490859;80;1122;-70
2022/02/08 03:40:02;;;;;;;;;;;23.90;47.10;;;;;;1490398;80;1104;-69
2022/02/08 03:42:08;;;;;;;;;;;23.90;47.10;;;;;;1490319;80;1540;-70
2022/02/08 03:44:04;;;;;;;;;;;24.00;47.00;;;;;;1490008;80;1914;-70
2022/02/08 03:46:11;;;;;;;;;;;23.90;47.00;;;;;;1494531;79;722;-69
2022/02/08 03:48:12;;;;;;;;;;;24.00;46.90;;;;;;1497920;79;1162;-70
2022/02/08 03:50:13;;;;;;;;;;;23.90;46.90;;;;;;1497827;79;1646;-70
2022/02/08 03:52:15;;;;;;;;;;;24.00;46.80;;;;;;1497654;78;685;-69
2022/02/08 03:54:17;;;;;;;;;;;24.00;46.90;;;;;;1498318;79;711;-70
2022/02/08 03:56:22;;;;;;;;;;;24.00;46.80;;;;;;1491213;78;789;-69
2022/02/08 03:58:22;;;;;;;;;;;24.10;46.90;;;;;;1498019;79;1637;-69
2022/02/08 04:00:27;;;;;;;;;;;24.10;46.80;;;;;;1492529;78;734;-71
2022/02/08 04:02:40;;;;;;;;;;;24.10;46.80;;;;;;1498050;79;1635;-69
2022/02/08 04:06:49;;;;;;;;;;;24.20;46.70;;;;;;1498259;79;1208;-69
2022/02/08 04:08:50;;;;;;;;;;;24.20;46.70;;;;;;1498114;79;1179;-68
2022/02/08 04:10:55;;;;;;;;;;;24.20;46.70;;;;;;1497868;79;699;-69
2022/02/08 04:15:48;;;;;;;;;;;24.20;46.50;;;;;;1498149;79;621;-71
2022/02/08 04:19:34;;;;;;;;;;;24.30;46.70;;;;;;1496877;79;708;-71
2022/02/08 04:42:03;;;;;;;;;;;24.40;46.40;;;;;;1517249;77;1615;-70
2022/02/08 04:44:13;;;;;;;;;;;24.40;46.30;;;;;;1511204;78;1929;-70
2022/02/08 04:46:11;;;;;;;;;;;24.40;46.30;;;;;;1498208;79;1113;-70
2022/02/08 04:48:17;;;;;;;;;;;24.40;46.30;;;;;;1504879;79;1141;-70
2022/02/08 04:50:11;;;;;;;;;;;24.40;46.30;;;;;;1502333;77;1552;-71
2022/02/08 04:52:16;;;;;;;;;;;24.50;46.30;;;;;;1507215;77;776;-71
2022/02/08 04:57:13;;;;;;;;;;;24.40;46.10;;;;;;1507061;78;1175;-71
2022/02/08 04:58:48;;;;;;;;;;;24.40;46.00;;;;;;1498225;77;1058;-71
2022/02/08 05:01:02;;;;;;;;;;;24.50;46.20;;;;;;1504475;79;1076;-71
2022/02/08 05:35:32;;;;;;;;;;;24.50;46.10;;;;;;1489906;79;1680;-72
2022/02/08 05:42:06;;;;;;;;;;;24.50;46.00;;;;;;1503904;79;1658;-72
2022/02/08 05:48:22;;;;;;;;;;;24.40;45.90;;;;;;1507188;78;1167;-73
2022/02/08 05:50:36;;;;;;;;;;;24.50;46.00;;;;;;1505691;79;1078;-74
2022/02/08 05:54:30;;;;;;;;;;;24.40;46.00;;;;;;1507348;78;813;-71
2022/02/08 05:56:32;;;;;;;;;;;24.50;46.20;;;;;;1507155;79;1092;-70
2022/02/08 05:58:34;;;;;;;;;;;24.50;46.00;;;;;;1502542;79;763;-71
2022/02/08 06:00:37;;;;;;;;;;;24.50;46.00;;;;;;1497250;77;796;-69
2022/02/08 06:02:39;;;;;;;;;;;24.50;46.00;;;;;;1507320;78;641;-71
2022/02/08 06:04:43;;;;;;;;;;;24.50;46.10;;;;;;1507466;79;1937;-71
2022/02/08 06:06:44;;;;;;;;;;;24.50;46.20;;;;;;1504392;79;1614;-70
2022/02/08 06:08:46;;;;;;;;;;;24.60;46.10;;;;;;1500200;79;930;-73
2022/02/08 06:10:52;;;;;;;;;;;24.60;46.10;;;;;;1501525;79;717;-70
2022/02/08 06:12:54;;;;;;;;;;;24.60;46.00;;;;;;1503033;79;1655;-71
2022/02/08 06:15:02;;;;;;;;;;;24.60;46.00;;;;;;1506460;79;711;-71
2022/02/08 06:17:02;;;;;;;;;;;24.60;46.00;;;;;;1504532;79;1132;-71
2022/02/08 06:19:05;;;;;;;;;;;24.60;46.10;;;;;;1507001;79;754;-71
2022/02/08 06:21:06;;;;;;;;;;;24.50;46.20;;;;;;1507359;79;741;-70
2022/02/08 06:23:08;;;;;;;;;;;24.70;46.30;;;;;;1507474;79;711;-70
2022/02/08 06:25:13;;;;;;;;;;;24.60;46.20;;;;;;1507118;79;1927;-71
2022/02/08 06:27:14;;;;;;;;;;;24.60;46.30;;;;;;1506898;78;1636;-69
2022/02/08 06:29:21;;;;;;;;;;;24.60;46.30;;;;;;1507520;79;662;-73
2022/02/08 06:31:19;;;;;;;;;;;24.60;46.30;;;;;;1506939;79;1099;-70
2022/02/08 06:33:21;;;;;;;;;;;24.60;46.30;;;;;;1528937;77;743;-72
2022/02/08 06:35:27;;;;;;;;;;;24.60;46.20;;;;;;1525580;77;776;-72
2022/02/08 06:37:31;;;;;;;;;;;24.60;46.10;;;;;;1499899;79;1161;-72
2022/02/08 06:39:35;;;;;;;;;;;24.60;46.00;;;;;;1499959;79;982;-74
2022/02/08 06:41:34;;;;;;;;;;;24.60;46.00;;;;;;1499855;79;1120;-71
2022/02/08 06:43:36;;;;;;;;;;;24.70;46.10;;;;;;1502114;79;715;-71
2022/02/08 06:45:38;;;;;;;;;;;24.60;45.90;;;;;;1506987;79;1929;-72
2022/02/08 06:47:41;;;;;;;;;;;24.60;45.90;;;;;;1507343;78;1129;-74
2022/02/08 06:49:43;;;;;;;;;;;24.70;46.00;;;;;;1504481;78;1200;-73
2022/02/08 06:51:45;;;;;;;;;;;24.60;45.70;;;;;;1507519;79;754;-72
2022/02/08 06:53:47;;;;;;;;;;;24.50;45.50;;;;;;1507585;79;730;-74
2022/02/08 06:55:50;;;;;;;;;;;24.50;45.60;;;;;;1507433;79;726;-72
2022/02/08 06:58:03;;;;;;;;;;;24.50;45.70;;;;;;1502874;79;1223;-73
2022/02/08 07:00:05;;;;;;;;;;;24.50;45.60;;;;;;1506894;79;1635;-73
2022/02/08 07:02:07;;;;;;;;;;;24.50;45.60;;;;;;1507406;79;735;-73
2022/02/08 07:04:14;;;;;;;;;;;24.50;45.50;;;;;;1507488;79;775;-73
2022/02/08 07:06:12;;;;;;;;;;;24.50;45.50;;;;;;1503995;79;1947;-73
2022/02/08 07:08:14;;;;;;;;;;;24.50;45.50;;;;;;1500327;79;1110;-72
2022/02/08 07:10:16;;;;;;;;;;;24.50;45.40;;;;;;1500474;79;726;-72
2022/02/08 07:12:18;;;;;;;;;;;24.50;45.40;;;;;;1500481;79;731;-72
2022/02/08 07:14:23;;;;;;;;;;;24.50;45.40;;;;;;1505456;79;723;-70
2022/02/08 07:16:24;;;;;;;;;;;24.50;45.20;;;;;;1507062;79;1428;-71
2022/02/08 07:18:25;;;;;;;;;;;24.50;45.20;;;;;;1507223;79;1145;-70
2022/02/08 07:20:27;;;;;;;;;;;24.50;45.30;;;;;;1506495;79;791;-71
2022/02/08 07:22:31;;;;;;;;;;;24.50;45.20;;;;;;1507337;79;790;-72
2022/02/08 07:24:33;;;;;;;;;;;24.50;45.20;;;;;;1507087;79;1918;-70
2022/02/08 07:26:35;;;;;;;;;;;24.50;45.20;;;;;;1507138;78;1155;-70
2022/02/08 07:28:42;;;;;;;;;;;24.40;45.10;;;;;;1506528;79;762;-70
2022/02/08 07:30:44;;;;;;;;;;;24.50;45.10;;;;;;1505645;79;1132;-71
2022/02/08 07:32:48;;;;;;;;;;;24.40;45.00;;;;;;1507203;78;716;-77
2022/02/08 07:34:58;;;;;;;;;;;24.40;45.20;;;;;;1507270;79;681;-76
2022/02/08 07:37:09;;;;;;;;;;;24.50;45.10;;;;;;1501305;77;1149;-73
2022/02/08 07:39:03;;;;;;;;;;;24.30;44.70;;;;;;1505843;79;1176;-71
2022/02/08 07:43:08;;;;;;;;;;;24.20;43.90;;;;;;1507292;78;789;-74
2022/02/08 07:45:11;;;;;;;;;;;24.20;43.50;;;;;;1506950;79;1945;-74
2022/02/08 07:47:14;;;;;;;;;;;24.10;43.60;;;;;;1507020;79;1149;-75
2022/02/08 07:49:15;;;;;;;;;;;24.20;43.50;;;;;;1506940;79;654;-71
2022/02/08 07:51:19;;;;;;;;;;;24.00;43.10;;;;;;1507139;79;716;-70
2022/02/08 07:53:26;;;;;;;;;;;23.90;43.00;;;;;;1507056;79;1091;-69
2022/02/08 07:55:24;;;;;;;;;;;23.90;42.80;;;;;;1506300;79;1664;-72
2022/02/08 07:57:26;;;;;;;;;;;23.90;42.70;;;;;;1479581;79;1150;-72
2022/02/08 07:59:28;;;;;;;;;;;23.80;42.50;;;;;;1517165;78;794;-72
2022/02/08 08:01:30;;;;;;;;;;;23.80;42.30;;;;;;1506251;77;742;-74
2022/02/08 08:03:32;;;;;;;;;;;23.80;42.10;;;;;;1503845;79;691;-72
2022/02/08 08:05:34;;;;;;;;;;;23.80;42.00;;;;;;1505886;79;1948;-74
2022/02/08 08:07:36;;;;;;;;;;;23.70;42.00;;;;;;1506523;78;1136;-74
2022/02/08 08:09:40;;;;;;;;;;;23.70;41.50;;;;;;1507417;78;662;-72
2022/02/08 08:11:44;;;;;;;;;;;23.70;41.40;;;;;;1498618;79;1688;-71
2022/02/08 08:13:52;;;;;;;;;;;23.60;41.40;;;;;;1507048;78;1170;-73
2022/02/08 08:15:57;;;;;;;;;;;23.60;41.30;;;;;;1503532;79;1716;-73
2022/02/08 08:18:01;;;;;;;;;;;23.60;41.30;;;;;;1506544;79;1515;-72
2022/02/08 08:20:00;;;;;;;;;;;23.60;41.30;;;;;;1505572;78;1139;-72
2022/02/08 08:22:03;;;;;;;;;;;23.60;41.00;;;;;;1506709;79;786;-71
2022/02/08 08:24:05;;;;;;;;;;;23.60;41.10;;;;;;1507115;79;735;-71
2022/02/08 08:26:07;;;;;;;;;;;23.50;40.80;;;;;;1507126;79;1918;-71
2022/02/08 08:28:09;;;;;;;;;;;23.50;40.90;;;;;;1507374;79;1132;-73
2022/02/08 08:30:11;;;;;;;;;;;23.40;40.70;;;;;;1504015;79;737;-71
2022/02/08 08:32:13;;;;;;;;;;;23.40;40.60;;;;;;1506207;78;677;-70
2022/02/08 08:34:15;;;;;;;;;;;23.40;40.70;;;;;;1517363;77;692;-72
2022/02/08 08:36:21;;;;;;;;;;;23.40;40.50;;;;;;1487120;79;659;-70
2022/02/08 08:38:24;;;;;;;;;;;23.40;40.50;;;;;;1498157;79;1160;-71
2022/02/08 08:41:21;;;;;;;;;;;23.30;40.50;;;;;;1495296;79;734;-71
2022/02/08 08:42:46;;;;;;;;;;;23.40;40.30;;;;;;1485482;79;1437;-72
2022/02/08 08:49:12;;;;;;;;;;;23.30;40.10;;;;;;1497689;79;1851;-73
2022/02/08 08:53:10;;;;;;;;;;;23.20;40.00;;;;;;1498170;79;870;-70
2022/02/08 08:55:12;;;;;;;;;;;23.20;40.00;;;;;;1498119;78;738;-70
2022/02/08 08:57:14;;;;;;;;;;;23.20;39.90;;;;;;1498065;79;1133;-70
2022/02/08 08:59:16;;;;;;;;;;;23.20;39.60;;;;;;1497966;79;678;-72
2022/02/08 09:01:17;;;;;;;;;;;23.10;39.70;;;;;;1497715;79;714;-71
2022/02/08 09:03:19;;;;;;;;;;;23.10;39.60;;;;;;1494134;79;805;-73
2022/02/08 09:05:21;;;;;;;;;;;23.20;39.50;;;;;;1498049;79;1949;-71
2022/02/08 09:07:24;;;;;;;;;;;23.10;39.60;;;;;;1498027;79;1204;-70
2022/02/08 09:09:28;;;;;;;;;;;23.00;39.40;;;;;;1497847;79;718;-71
2022/02/08 09:11:48;;;;;;;;;;;23.00;39.10;;;;;;1498101;79;719;-72
2022/02/08 09:13:44;;;;;;;;;;;23.00;39.30;;;;;;1496536;79;1650;-73
2022/02/08 09:16:05;;;;;;;;;;;23.00;39.00;;;;;;1496573;79;1121;-71
2022/02/08 09:18:34;;;;;;;;;;;23.00;39.20;;;;;;1524731;74;2117;-73
2022/02/08 09:20:33;;;;;;;;;;;23.00;39.00;;;;;;1542833;75;1635;-73
2022/02/08 09:22:36;;;;;;;;;;;23.00;39.10;;;;;;1543793;75;1539;-73
2022/02/08 09:24:51;;;;;;;;;;;23.00;38.90;;;;;;1544470;75;1584;-74
2022/02/08 09:29:00;;;;;;;;;;;23.00;38.90;;;;;;1522318;77;1641;-74
2022/02/08 09:31:03;;;;;;;;;;;23.00;38.90;;;;;;1522146;77;1759;-73
2022/02/08 09:33:04;;;;;;;;;;;23.00;38.90;;;;;;1523062;77;1018;-72
2022/02/08 09:35:09;;;;;;;;;;;22.90;38.70;;;;;;1523985;77;735;-72
2022/02/08 09:37:11;;;;;;;;;;;23.00;38.70;;;;;;1524042;77;1138;-72
2022/02/08 09:39:13;;;;;;;;;;;23.00;38.70;;;;;;1526191;77;724;-72
2022/02/08 09:41:14;;;;;;;;;;;22.90;38.60;;;;;;1520753;77;702;-73
2022/02/08 09:43:18;;;;;;;;;;;22.90;38.40;;;;;;1534970;77;722;-73
2022/02/08 09:45:20;;;;;;;;;;;22.90;38.60;;;;;;1521552;77;1913;-73
2022/02/08 09:47:38;;;;;;;;;;;22.90;38.40;;;;;;1536029;77;1086;-73
2022/02/08 09:49:26;;;;;;;;;;;22.90;38.40;;;;;;1521397;77;1128;-73
2022/02/08 09:51:28;;;;;;;;;;;22.90;38.50;;;;;;1521990;77;707;-73
2022/02/08 09:53:34;;;;;;;;;;;22.90;38.40;;;;;;1519671;77;861;-74
2022/02/08 09:55:39;;;;;;;;;;;22.80;38.10;;;;;;1521088;77;1689;-74
2022/02/08 09:57:39;;;;;;;;;;;22.80;38.20;;;;;;1522218;77;1735;-72
2022/02/08 09:59:42;;;;;;;;;;;22.90;38.00;;;;;;1522588;77;805;-70
2022/02/08 10:01:53;;;;;;;;;;;22.80;38.10;;;;;;1525600;77;719;-70
2022/02/08 10:03:58;;;;;;;;;;;22.90;38.50;;;;;;1525558;76;996;-73
2022/02/08 10:06:00;;;;;;;;;;;22.90;38.70;;;;;;1522036;77;1933;-70
2022/02/08 10:08:08;;;;;;;;;;;22.90;38.70;;;;;;1523324;77;1201;-70
2022/02/08 10:10:11;;;;;;;;;;;23.00;38.90;;;;;;1531107;77;778;-69
2022/02/08 10:12:17;;;;;;;;;;;23.00;39.00;;;;;;1525604;77;719;-69
2022/02/08 10:23:05;;;;;;;;;;;23.20;39.70;;;;;;1539303;77;869;-69
2022/02/08 10:25:14;;;;;;;;;;;23.20;39.90;;;;;;1537641;77;709;-71
2022/02/08 10:27:25;;;;;;;;;;;23.20;39.90;;;;;;1523684;77;1932;-71
2022/02/08 10:29:40;;;;;;;;;;;23.40;40.10;;;;;;1521793;77;1176;-69
2022/02/08 10:38:41;;;;;;;;;;;23.60;40.40;;;;;;1530920;77;1671;-69
2022/02/08 10:40:43;;;;;;;;;;;23.60;40.40;;;;;;1522098;77;753;-70
2022/02/08 10:42:52;;;;;;;;;;;23.70;40.50;;;;;;1533966;77;741;-69
2022/02/08 10:44:53;;;;;;;;;;;23.70;40.70;;;;;;1537133;77;738;-72
2022/02/08 10:47:00;;;;;;;;;;;23.70;40.70;;;;;;1537533;77;1949;-69
2022/02/08 10:49:07;;;;;;;;;;;23.70;40.80;;;;;;1530840;77;810;-70
2022/02/08 10:51:09;;;;;;;;;;;23.80;41.00;;;;;;1535650;77;715;-69
2022/02/08 10:53:12;;;;;;;;;;;23.70;41.00;;;;;;1526841;77;704;-70
2022/02/08 10:55:27;;;;;;;;;;;23.70;41.10;;;;;;1525105;77;759;-71
2022/02/08 10:57:30;;;;;;;;;;;23.80;41.30;;;;;;1520519;77;1774;-69
2022/02/08 10:59:32;;;;;;;;;;;23.90;41.50;;;;;;1521830;77;1117;-68
2022/02/08 11:01:33;;;;;;;;;;;23.90;41.50;;;;;;1533030;77;1116;-70
2022/02/08 11:03:49;;;;;;;;;;;23.80;41.50;;;;;;1533920;77;1737;-69
2022/02/08 11:06:01;;;;;;;;;;;23.80;41.50;;;;;;1518080;76;1923;-72
2022/02/08 11:08:07;;;;;;;;;;;23.90;41.60;;;;;;1524363;76;1710;-69
2022/02/08 11:10:11;;;;;;;;;;;23.90;41.60;;;;;;1523679;77;1726;-73
2022/02/08 11:14:34;;;;;;;;;;;24.00;41.50;;;;;;1530250;77;862;-72
2022/02/08 11:16:43;;;;;;;;;;;24.00;41.50;;;;;;1524645;77;2191;-72
2022/02/08 11:20:44;;;;;;;;;;;24.10;41.50;;;;;;1523685;77;865;-71
2022/02/08 11:22:52;;;;;;;;;;;24.20;41.30;;;;;;1516107;77;1656;-73
2022/02/08 11:24:57;;;;;;;;;;;24.30;41.40;;;;;;1523982;77;1571;-70
2022/02/08 11:27:02;;;;;;;;;;;24.20;41.30;;;;;;1538630;76;1927;-72
2022/02/08 11:28:59;;;;;;;;;;;24.30;41.40;;;;;;1526446;77;1641;-71
2022/02/08 11:31:40;;;;;;;;;;;24.20;41.30;;;;;;1530665;77;1859;-70
2022/02/08 11:33:31;;;;;;;;;;;24.30;41.50;;;;;;1509128;77;1435;-71
2022/02/08 11:42:26;;;;;;;;;;;24.30;41.50;;;;;;1518454;77;1881;-70
2022/02/08 11:42:56;;;;;;;;;;;24.30;41.60;;;;;;1497848;78;1095;-70
2022/02/08 11:44:49;;;;;;;;;;;24.20;41.40;;;;;;1519472;77;1483;-73
2022/02/08 11:53:09;;;;;;;;;;;24.50;41.20;;;;;;1524434;77;868;-70
2022/02/08 11:55:11;;;;;;;;;;;24.50;41.20;;;;;;1526637;77;1916;-73
2022/02/08 11:57:37;;;;;;;;;;;24.50;41.20;;;;;;1521862;77;1669;-70
2022/02/08 12:01:26;;;;;;;;;;;24.50;40.90;;;;;;1532705;77;789;-73
2022/02/08 12:07:23;;;;;;;;;;;24.50;40.70;;;;;;1524910;77;1936;-74
2022/02/08 12:09:28;;;;;;;;;;;24.50;40.70;;;;;;1534971;77;791;-70
2022/02/08 12:12:37;;;;;;;;;;;24.50;40.70;;;;;;1524003;77;1671;-72
2022/02/08 12:32:22;;;;;;;;;;;24.40;40.60;;;;;;1521985;77;1052;-72
2022/02/08 12:50:44;;;;;;;;;;;24.40;40.90;;;;;;1520402;77;1659;-70
2022/02/08 12:54:55;;;;;;;;;;;24.30;40.90;;;;;;1511750;77;839;-70
2022/02/08 13:01:21;;;;;;;;;;;24.40;40.90;;;;;;1525526;77;896;-71
2022/02/08 13:16:01;;;;;;;;;;;24.40;41.00;;;;;;1513255;77;1678;-70
2022/02/08 13:19:47;;;;;;;;;;;24.40;41.00;;;;;;1522579;77;871;-70
2022/02/08 14:05:45;;;;;;;;;;;24.60;41.00;;;;;;1523494;77;806;-71
2022/02/08 14:07:25;;;;;;;;;;;24.50;41.00;;;;;;1518828;77;1937;-71
2022/02/08 14:11:46;;;;;;;;;;;24.50;41.00;;;;;;1534719;77;853;-70
2022/02/08 14:13:54;;;;;;;;;;;24.50;40.90;;;;;;1516946;78;1449;-71
2022/02/08 14:18:10;;;;;;;;;;;24.50;40.80;;;;;;1514543;77;1630;-71
2022/02/08 14:22:48;;;;;;;;;;;24.50;40.80;;;;;;1523246;77;865;-72
2022/02/08 14:29:37;;;;;;;;;;;24.50;40.80;;;;;;1521787;77;697;-70
2022/02/08 14:31:51;;;;;;;;;;;24.50;40.80;;;;;;1523041;77;1607;-70
2022/02/08 14:36:18;;;;;;;;;;;24.60;40.90;;;;;;1530194;77;1613;-71
2022/02/08 15:05:52;;;;;;;;;;;24.60;41.50;;;;;;1527052;77;1644;-71
2022/02/08 15:09:58;;;;;;;;;;;24.60;41.50;;;;;;1529452;77;861;-70
2022/02/08 15:14:11;;;;;;;;;;;24.60;41.60;;;;;;1523221;77;746;-70
2022/02/08 15:18:19;;;;;;;;;;;24.60;41.60;;;;;;1564574;70;2061;-68
2022/02/08 15:20:23;;;;;;;;;;;24.50;41.70;;;;;;1596727;74;720;-69
2022/02/08 15:22:24;;;;;;;;;;;24.60;41.70;;;;;;1596472;73;916;-69
2022/02/08 15:24:26;;;;;;;;;;;24.60;41.70;;;;;;1595547;73;763;-75
2022/02/08 15:26:28;;;;;;;;;;;24.60;41.80;;;;;;1595530;73;782;-70
2022/02/08 15:28:30;;;;;;;;;;;24.60;41.60;;;;;;1594113;74;1926;-69
2022/02/08 15:30:33;;;;;;;;;;;24.70;41.80;;;;;;1582292;75;753;-68
2022/02/08 15:32:35;;;;;;;;;;;24.60;41.60;;;;;;1591796;74;698;-69
2022/02/08 15:34:37;;;;;;;;;;;24.70;41.70;;;;;;1590852;75;759;-68
2022/02/08 15:36:39;;;;;;;;;;;24.70;41.70;;;;;;1590776;75;742;-69
2022/02/08 15:38:43;;;;;;;;;;;24.60;41.60;;;;;;1585275;73;1154;-69
2022/02/08 15:40:45;;;;;;;;;;;24.60;41.60;;;;;;1591050;75;1620;-70
2022/02/08 15:42:48;;;;;;;;;;;24.70;41.80;;;;;;1591932;75;716;-69
2022/02/08 15:44:54;;;;;;;;;;;24.60;41.70;;;;;;1587821;75;722;-68
2022/02/08 15:46:54;;;;;;;;;;;24.60;41.60;;;;;;1575307;74;1345;-69
2022/02/08 15:48:56;;;;;;;;;;;24.60;41.70;;;;;;1589738;73;1883;-69
2022/02/08 15:53:23;;;;;;;;;;;24.70;41.80;;;;;;1587360;75;819;-69
2022/02/08 15:55:27;;;;;;;;;;;24.60;41.70;;;;;;1581175;74;1747;-68
2022/02/08 16:08:35;;;;;;;;;;;24.60;41.80;;;;;;1589163;73;1911;-68
2022/02/08 16:10:48;;;;;;;;;;;24.50;41.90;;;;;;1584849;73;1698;-70
2022/02/08 16:15:16;;;;;;;;;;;24.60;41.90;;;;;;1594772;73;698;-69
2022/02/08 16:17:13;;;;;;;;;;;24.60;41.90;;;;;;1585049;73;1701;-69
2022/02/08 16:19:21;;;;;;;;;;;24.60;42.00;;;;;;1574320;74;1590;-69
2022/02/08 16:21:45;;;;;;;;;;;24.60;42.10;;;;;;1587154;73;1571;-69
2022/02/08 16:25:51;;;;;;;;;;;24.60;42.10;;;;;;1596291;73;868;-70
2022/02/08 16:27:52;;;;;;;;;;;24.60;42.10;;;;;;1582366;73;1911;-69
2022/02/08 16:32:12;;;;;;;;;;;24.60;42.20;;;;;;1577516;73;884;-69
2022/02/08 16:52:52;;;;;;;;;;;24.50;42.20;;;;;;1578717;73;869;-70
2022/02/08 16:54:56;;;;;;;;;;;24.60;42.20;;;;;;1581318;73;1664;-70
2022/02/08 16:56:58;;;;;;;;;;;24.60;42.30;;;;;;1580120;73;1658;-70
2022/02/08 16:58:56;;;;;;;;;;;24.60;42.20;;;;;;1575852;73;1583;-68
2022/02/08 17:01:01;;;;;;;;;;;24.60;42.30;;;;;;1582340;73;832;-68
2022/02/08 17:03:06;;;;;;;;;;;24.60;42.20;;;;;;1585820;73;1592;-69
2022/02/08 17:05:05;;;;;;;;;;;24.60;42.20;;;;;;1570545;73;1091;-71
2022/02/08 17:07:07;;;;;;;;;;;24.60;42.20;;;;;;1589965;73;750;-70
2022/02/08 17:09:14;;;;;;;;;;;24.60;42.20;;;;;;1599384;73;2011;-69
2022/02/08 17:11:19;;;;;;;;;;;24.60;42.20;;;;;;1587402;73;1597;-70
2022/02/08 17:47:44;;;;;;;;;;;24.50;42.50;;;;;;1589142;73;1939;-69
2022/02/08 17:49:46;;;;;;;;;;;24.40;42.40;;;;;;1593645;73;688;-68
2022/02/08 17:51:48;;;;;;;;;;;24.30;42.50;;;;;;1586623;75;702;-70
2022/02/08 17:53:50;;;;;;;;;;;24.30;42.50;;;;;;1592529;73;733;-73
2022/02/08 17:55:52;;;;;;;;;;;24.20;42.50;;;;;;1591486;73;738;-71
2022/02/08 17:57:55;;;;;;;;;;;24.20;42.60;;;;;;1590986;73;1075;-70
2022/02/08 17:59:57;;;;;;;;;;;24.20;42.50;;;;;;1581753;73;787;-70
2022/02/08 18:01:59;;;;;;;;;;;24.30;42.70;;;;;;1589069;73;725;-70
2022/02/08 18:04:01;;;;;;;;;;;24.20;42.60;;;;;;1592389;73;626;-69
2022/02/08 18:06:03;;;;;;;;;;;24.20;42.60;;;;;;1591960;73;738;-71
2022/02/08 18:08:07;;;;;;;;;;;24.20;42.60;;;;;;1560414;74;1932;-70
2022/02/08 18:10:09;;;;;;;;;;;24.20;42.70;;;;;;1591753;73;778;-70
2022/02/08 18:12:11;;;;;;;;;;;24.20;42.60;;;;;;1587573;73;629;-70
2022/02/08 18:14:18;;;;;;;;;;;24.20;42.70;;;;;;1587040;73;746;-70
2022/02/08 18:16:21;;;;;;;;;;;24.20;42.70;;;;;;1582893;73;996;-70
2022/02/08 18:18:27;;;;;;;;;;;24.20;42.60;;;;;;1580110;73;1130;-75
2022/02/08 18:20:34;;;;;;;;;;;24.10;42.40;;;;;;1588931;73;1071;-70